Brangus — WDB4516 — position and weather

sailwx.info

Track history (hours):
 
Tides and Currents Weather Stations Pressure Air Temp Water Temp Dewpoint Dewpoint Depression Visibility Wind Speed Wind Dir Waves Ship Positions

Brangus

Owner: Great Lakes Dredge & Dock Company, Oak Brook, IL. More information available from US FCC via Universal Licensing System and Coast Guard Vessel Documentation Center.

Last reported at 2017-Jan-16 22:17 UTC. Time now 2017-Jan-17 21:26 UTC.
Position N 39°23' W 074°25'.

; draft 3 m.

MMSI: 366899270.

Date/timePositionNaut miles runAvg speedWind from/ knotsBaromVisibWave heightAir tempDewpointWater temp
2017-Jan-16 22:17N 39°23' W 074°25'18 0.7
2017-Jan-15 22:33N 39°36' W 074°09'6 5.6
2017-Jan-15 21:33N 39°41' W 074°06'48 6.5
2017-Jan-15 14:12N 40°27' W 073°52'16 5.8
2017-Jan-15 11:30N 40°12' W 073°59'9 7.9
2017-Jan-15 10:18N 40°03' W 074°01'14 8.2
2017-Jan-15 08:33N 39°49' W 074°04'9 8.6
2017-Jan-15 07:34N 39°41' W 074°06'57 3.3
2017-Jan-14 14:33N 38°57' W 074°53'28 1.9
2017-Jan-13 23:33N 39°16' W 075°20'1010.2
2017-Jan-13 22:33N 39°23' W 075°29'1010.0
2017-Jan-13 21:33N 39°33' W 075°33'10 9.5
2017-Jan-13 20:33N 39°42' W 075°31'9 9.2
2017-Jan-13 19:33N 39°49' W 075°23'1 0.5
2017-Jan-13 16:32N 39°50' W 075°22'0 0.0
2017-Jan-13 15:15N 39°50' W 075°22'0 0.0
2017-Jan-13 14:31N 39°50' W 075°22'0 0.0
2017-Jan-13 13:33N 39°50' W 075°22'0 0.1
2017-Jan-13 12:33N 39°50' W 075°22'0 0.0
2017-Jan-13 11:34N 39°50' W 075°22'0 0.0
2017-Jan-13 10:33N 39°50' W 075°22'0 0.0
2017-Jan-13 09:33N 39°50' W 075°22'0 0.1
2017-Jan-13 08:33N 39°50' W 075°22'0 0.1
2017-Jan-13 07:33N 39°50' W 075°22'0 0.0
2017-Jan-13 06:29N 39°50' W 075°22'1 0.8
2017-Jan-13 05:33N 39°50' W 075°22'4 4.1
2017-Jan-13 04:33N 39°48' W 075°27'4 4.5
2017-Jan-13 03:33N 39°50' W 075°22'0 0.4
2017-Jan-13 02:33N 39°50' W 075°22'0 0.2
2017-Jan-13 01:33N 39°50' W 075°22'3 3.1
2017-Jan-13 00:33N 39°48' W 075°25'2 1.9
2017-Jan-12 23:33N 39°47' W 075°27'0 0.0
2017-Jan-12 22:33N 39°47' W 075°27'0 0.0
2017-Jan-12 21:33N 39°47' W 075°27'0 0.0
2017-Jan-12 20:33N 39°47' W 075°27'0 0.1
2017-Jan-12 19:33N 39°47' W 075°27'0 0.2
2017-Jan-12 18:33N 39°47' W 075°27'0 0.0
2017-Jan-12 17:33N 39°47' W 075°27'0 0.0
2017-Jan-12 16:33N 39°47' W 075°27'0 0.0
2017-Jan-12 15:33N 39°47' W 075°27'0 0.0
2017-Jan-12 14:33N 39°47' W 075°27'0 0.1
2017-Jan-12 13:33N 39°47' W 075°27'0 0.0
2017-Jan-12 12:33N 39°47' W 075°27'0 0.0
2017-Jan-12 11:33N 39°47' W 075°27'0 0.0
2017-Jan-12 10:33N 39°47' W 075°27'0 0.0
2017-Jan-12 09:33N 39°47' W 075°27'0 0.0
2017-Jan-12 08:33N 39°47' W 075°27'0 0.0
2017-Jan-12 07:33N 39°47' W 075°27'0 0.2
2017-Jan-12 06:33N 39°47' W 075°27'0 0.1
2017-Jan-12 05:33N 39°47' W 075°27'0 0.1
2017-Jan-12 04:33N 39°47' W 075°27'0 0.2
2017-Jan-12 03:33N 39°47' W 075°27'0 0.1
2017-Jan-12 02:33N 39°47' W 075°27'0 0.0
2017-Jan-12 01:33N 39°47' W 075°27'0 0.1
2017-Jan-12 00:33N 39°47' W 075°27'0 0.0
2017-Jan-11 23:33N 39°47' W 075°27'0 0.0
2017-Jan-11 22:33N 39°47' W 075°27'0 0.0
2017-Jan-11 21:33N 39°47' W 075°27'0 0.0
2017-Jan-11 20:33N 39°47' W 075°27'0 0.2
2017-Jan-11 19:33N 39°47' W 075°27'0 0.0
2017-Jan-11 18:33N 39°47' W 075°27'0 0.0
2017-Jan-11 17:33N 39°47' W 075°27'0 0.3
2017-Jan-11 16:33N 39°48' W 075°27'0 0.3
2017-Jan-11 15:33N 39°47' W 075°27'0 0.0
2017-Jan-11 14:33N 39°47' W 075°27'0 0.0
2017-Jan-11 13:33N 39°47' W 075°27'0 0.0
2017-Jan-11 12:33N 39°47' W 075°27'0 0.1
2017-Jan-11 11:33N 39°47' W 075°27'0 0.0
2017-Jan-11 10:33N 39°47' W 075°27'0 0.3
2017-Jan-11 09:33N 39°48' W 075°27'0 0.0
2017-Jan-11 08:33N 39°48' W 075°27'0 0.3
2017-Jan-11 07:33N 39°47' W 075°27'0 0.3
2017-Jan-11 06:33N 39°48' W 075°27'0 0.0
2017-Jan-11 05:33N 39°48' W 075°27'0 0.0
2017-Jan-11 04:33N 39°48' W 075°27'0 0.0
2017-Jan-11 03:33N 39°48' W 075°27'0 0.0
2017-Jan-11 02:33N 39°48' W 075°27'0 0.0
2017-Jan-11 01:33N 39°48' W 075°27'0 0.3
2017-Jan-11 00:33N 39°47' W 075°27'0 0.0
2017-Jan-10 23:33N 39°47' W 075°27'0 0.0
2017-Jan-10 22:33N 39°47' W 075°27'0 0.1
2017-Jan-10 21:33N 39°47' W 075°27'0 0.1
2017-Jan-10 20:33N 39°47' W 075°27'0 0.0
2017-Jan-10 19:33N 39°47' W 075°27'0 0.0
2017-Jan-10 18:33N 39°47' W 075°27'0 0.0
2017-Jan-10 17:33N 39°47' W 075°27'0 0.0
2017-Jan-10 16:33N 39°47' W 075°27'0 0.0
2017-Jan-10 15:33N 39°47' W 075°27'0 0.0
2017-Jan-10 14:33N 39°47' W 075°27'3 3.4
2017-Jan-10 13:33N 39°49' W 075°23'2 2.3
2017-Jan-10 12:33N 39°51' W 075°21'6 5.6
2017-Jan-10 11:33N 39°47' W 075°27'0 0.0
2017-Jan-10 10:33N 39°47' W 075°27'0 0.1
2017-Jan-10 09:34N 39°47' W 075°27'0 0.2
2017-Jan-10 08:34N 39°48' W 075°27'0 0.0
2017-Jan-10 07:33N 39°48' W 075°27'0 0.2
2017-Jan-10 06:34N 39°47' W 075°27'0 0.2
2017-Jan-10 05:34N 39°48' W 075°27'0 0.0
2017-Jan-10 04:33N 39°48' W 075°27'0 0.1
2017-Jan-10 03:33N 39°47' W 075°27'0 0.1
2017-Jan-10 02:33N 39°48' W 075°27'0 0.2
2017-Jan-10 01:33N 39°47' W 075°27'0 0.2
2017-Jan-10 00:34N 39°47' W 075°27'0 0.0
2017-Jan-09 23:34N 39°47' W 075°27'0 0.1
2017-Jan-09 22:33N 39°47' W 075°27'0 0.1
2017-Jan-09 21:34N 39°47' W 075°27'0 0.1
2017-Jan-09 20:33N 39°47' W 075°27'0 0.1
2017-Jan-09 19:34N 39°47' W 075°27'0 0.0
2017-Jan-09 18:33N 39°47' W 075°27'0 0.0
2017-Jan-09 17:33N 39°47' W 075°27'0 0.0
2017-Jan-09 16:33N 39°47' W 075°27'0 0.0
2017-Jan-09 15:34N 39°47' W 075°27'0 0.0
2017-Jan-09 14:33N 39°47' W 075°27'0 0.0
2017-Jan-09 13:34N 39°47' W 075°27'0 0.0
2017-Jan-09 12:34N 39°47' W 075°27'0 0.0
2017-Jan-09 11:34N 39°47' W 075°27'0 0.1
2017-Jan-09 10:33N 39°47' W 075°27'0 0.1
2017-Jan-09 09:33N 39°47' W 075°27'0 0.0
2017-Jan-09 08:33N 39°47' W 075°27'0 0.1
2017-Jan-09 07:33N 39°47' W 075°27'0 0.0
2017-Jan-09 06:33N 39°47' W 075°27'0 0.0
2017-Jan-09 05:33N 39°47' W 075°27'0 0.0
2017-Jan-09 04:33N 39°47' W 075°27'0 0.0
2017-Jan-09 03:33N 39°47' W 075°27'0 0.0
2017-Jan-09 02:33N 39°47' W 075°27'0 0.0
2017-Jan-09 01:33N 39°47' W 075°27'0 0.1
2017-Jan-09 00:33N 39°47' W 075°27'0 0.0
2017-Jan-08 23:33N 39°47' W 075°27'0 0.0
2017-Jan-08 22:33N 39°47' W 075°27'0 0.0
2017-Jan-08 21:33N 39°47' W 075°27'0 0.0
2017-Jan-08 20:33N 39°47' W 075°27'0 0.0
2017-Jan-08 19:33N 39°47' W 075°27'0 0.0
2017-Jan-08 18:33N 39°47' W 075°27'0 0.0
2017-Jan-08 17:33N 39°47' W 075°27'0 0.0
2017-Jan-08 16:33N 39°47' W 075°27'0 0.0
2017-Jan-08 15:33N 39°47' W 075°27'1 0.8
2017-Jan-08 14:33N 39°48' W 075°26'1 0.6
2017-Jan-08 13:33N 39°48' W 075°25'0 0.0
2017-Jan-08 12:33N 39°48' W 075°25'0 0.0
2017-Jan-08 11:33N 39°48' W 075°25'0 0.0
2017-Jan-08 10:33N 39°48' W 075°25'0 0.0
2017-Jan-08 09:33N 39°48' W 075°25'0 0.0
2017-Jan-08 08:33N 39°48' W 075°25'0 0.1
2017-Jan-08 07:33N 39°48' W 075°25'0 0.0
2017-Jan-08 06:33N 39°48' W 075°25'0 0.0
2017-Jan-08 05:33N 39°48' W 075°25'0 0.0
2017-Jan-08 04:33N 39°48' W 075°25'0 0.0
2017-Jan-08 03:33N 39°48' W 075°25'0 0.0
2017-Jan-08 02:33N 39°48' W 075°25'0 0.0
2017-Jan-08 01:33N 39°48' W 075°25'0 0.0
2017-Jan-08 00:33N 39°48' W 075°25'0 0.1
2017-Jan-07 23:33N 39°48' W 075°25'0 0.0
2017-Jan-07 22:33N 39°48' W 075°25'0 0.1
2017-Jan-07 21:33N 39°48' W 075°25'2 1.7
2017-Jan-07 20:33N 39°49' W 075°23'0 0.1
2017-Jan-07 19:33N 39°49' W 075°23'0 0.0
2017-Jan-07 18:33N 39°49' W 075°23'0 0.0
2017-Jan-07 17:33N 39°49' W 075°23'0 0.0
2017-Jan-07 16:33N 39°49' W 075°23'0 0.0
2017-Jan-07 15:33N 39°49' W 075°23'0 0.0
2017-Jan-07 14:33N 39°49' W 075°23'0 0.0
2017-Jan-07 13:33N 39°49' W 075°23'0 0.0
2017-Jan-07 12:33N 39°49' W 075°23'0 0.0
2017-Jan-07 11:33N 39°49' W 075°23'0 0.0
2017-Jan-07 10:33N 39°49' W 075°23'0 0.0
2017-Jan-07 09:33N 39°49' W 075°23'0 0.1
2017-Jan-07 08:33N 39°49' W 075°23'0 0.2
2017-Jan-07 07:33N 39°49' W 075°23'0 0.1
2017-Jan-07 06:33N 39°49' W 075°23'0 0.0
2017-Jan-07 05:33N 39°49' W 075°23'0 0.0
2017-Jan-07 04:33N 39°49' W 075°23'0 0.0
2017-Jan-07 03:33N 39°49' W 075°23'0 0.0
2017-Jan-07 02:33N 39°49' W 075°23'0 0.0
2017-Jan-07 01:33N 39°49' W 075°23'0 0.1
2017-Jan-07 00:33N 39°49' W 075°23'0 0.1
2017-Jan-06 23:33N 39°49' W 075°23'0 0.1
2017-Jan-06 22:33N 39°49' W 075°23'  
Track history (hours):
 
Tides and Currents Weather Stations Pressure Air Temp Water Temp Dewpoint Dewpoint Depression Visibility Wind Speed Wind Dir Waves Ship Positions

Brangus

Owner: Great Lakes Dredge & Dock Company, Oak Brook, IL. More information available from US FCC via Universal Licensing System and Coast Guard Vessel Documentation Center.

Last reported at 2017-Jan-16 22:17 UTC. Time now 2017-Jan-17 21:26 UTC.
Position N 39°23' W 074°25'.

; draft 3 m.

MMSI: 366899270.

Date/timePositionNaut miles runAvg speedWind from/ knotsBaromVisibWave heightAir tempDewpointWater temp
2017-Jan-16 22:17N 39°23' W 074°25'18 0.7
2017-Jan-15 22:33N 39°36' W 074°09'6 5.6
2017-Jan-15 21:33N 39°41' W 074°06'48 6.5
2017-Jan-15 14:12N 40°27' W 073°52'16 5.8
2017-Jan-15 11:30N 40°12' W 073°59'9 7.9
2017-Jan-15 10:18N 40°03' W 074°01'14 8.2
2017-Jan-15 08:33N 39°49' W 074°04'9 8.6
2017-Jan-15 07:34N 39°41' W 074°06'57 3.3
2017-Jan-14 14:33N 38°57' W 074°53'28 1.9
2017-Jan-13 23:33N 39°16' W 075°20'1010.2
2017-Jan-13 22:33N 39°23' W 075°29'1010.0
2017-Jan-13 21:33N 39°33' W 075°33'10 9.5
2017-Jan-13 20:33N 39°42' W 075°31'9 9.2
2017-Jan-13 19:33N 39°49' W 075°23'1 0.5
2017-Jan-13 16:32N 39°50' W 075°22'0 0.0
2017-Jan-13 15:15N 39°50' W 075°22'0 0.0
2017-Jan-13 14:31N 39°50' W 075°22'0 0.0
2017-Jan-13 13:33N 39°50' W 075°22'0 0.1
2017-Jan-13 12:33N 39°50' W 075°22'0 0.0
2017-Jan-13 11:34N 39°50' W 075°22'0 0.0
2017-Jan-13 10:33N 39°50' W 075°22'0 0.0
2017-Jan-13 09:33N 39°50' W 075°22'0 0.1
2017-Jan-13 08:33N 39°50' W 075°22'0 0.1
2017-Jan-13 07:33N 39°50' W 075°22'0 0.0
2017-Jan-13 06:29N 39°50' W 075°22'1 0.8
2017-Jan-13 05:33N 39°50' W 075°22'4 4.1
2017-Jan-13 04:33N 39°48' W 075°27'4 4.5
2017-Jan-13 03:33N 39°50' W 075°22'0 0.4
2017-Jan-13 02:33N 39°50' W 075°22'0 0.2
2017-Jan-13 01:33N 39°50' W 075°22'3 3.1
2017-Jan-13 00:33N 39°48' W 075°25'2 1.9
2017-Jan-12 23:33N 39°47' W 075°27'0 0.0
2017-Jan-12 22:33N 39°47' W 075°27'0 0.0
2017-Jan-12 21:33N 39°47' W 075°27'0 0.0
2017-Jan-12 20:33N 39°47' W 075°27'0 0.1
2017-Jan-12 19:33N 39°47' W 075°27'0 0.2
2017-Jan-12 18:33N 39°47' W 075°27'0 0.0
2017-Jan-12 17:33N 39°47' W 075°27'0 0.0
2017-Jan-12 16:33N 39°47' W 075°27'0 0.0
2017-Jan-12 15:33N 39°47' W 075°27'0 0.0
2017-Jan-12 14:33N 39°47' W 075°27'0 0.1
2017-Jan-12 13:33N 39°47' W 075°27'0 0.0
2017-Jan-12 12:33N 39°47' W 075°27'0 0.0
2017-Jan-12 11:33N 39°47' W 075°27'0 0.0
2017-Jan-12 10:33N 39°47' W 075°27'0 0.0
2017-Jan-12 09:33N 39°47' W 075°27'0 0.0
2017-Jan-12 08:33N 39°47' W 075°27'0 0.0
2017-Jan-12 07:33N 39°47' W 075°27'0 0.2
2017-Jan-12 06:33N 39°47' W 075°27'0 0.1
2017-Jan-12 05:33N 39°47' W 075°27'0 0.1
2017-Jan-12 04:33N 39°47' W 075°27'0 0.2
2017-Jan-12 03:33N 39°47' W 075°27'0 0.1
2017-Jan-12 02:33N 39°47' W 075°27'0 0.0
2017-Jan-12 01:33N 39°47' W 075°27'0 0.1
2017-Jan-12 00:33N 39°47' W 075°27'0 0.0
2017-Jan-11 23:33N 39°47' W 075°27'0 0.0
2017-Jan-11 22:33N 39°47' W 075°27'0 0.0
2017-Jan-11 21:33N 39°47' W 075°27'0 0.0
2017-Jan-11 20:33N 39°47' W 075°27'0 0.2
2017-Jan-11 19:33N 39°47' W 075°27'0 0.0
2017-Jan-11 18:33N 39°47' W 075°27'0 0.0
2017-Jan-11 17:33N 39°47' W 075°27'0 0.3
2017-Jan-11 16:33N 39°48' W 075°27'0 0.3
2017-Jan-11 15:33N 39°47' W 075°27'0 0.0
2017-Jan-11 14:33N 39°47' W 075°27'0 0.0
2017-Jan-11 13:33N 39°47' W 075°27'0 0.0
2017-Jan-11 12:33N 39°47' W 075°27'0 0.1
2017-Jan-11 11:33N 39°47' W 075°27'0 0.0
2017-Jan-11 10:33N 39°47' W 075°27'0 0.3
2017-Jan-11 09:33N 39°48' W 075°27'0 0.0
2017-Jan-11 08:33N 39°48' W 075°27'0 0.3
2017-Jan-11 07:33N 39°47' W 075°27'0 0.3
2017-Jan-11 06:33N 39°48' W 075°27'0 0.0
2017-Jan-11 05:33N 39°48' W 075°27'0 0.0
2017-Jan-11 04:33N 39°48' W 075°27'0 0.0
2017-Jan-11 03:33N 39°48' W 075°27'0 0.0
2017-Jan-11 02:33N 39°48' W 075°27'0 0.0
2017-Jan-11 01:33N 39°48' W 075°27'0 0.3
2017-Jan-11 00:33N 39°47' W 075°27'0 0.0
2017-Jan-10 23:33N 39°47' W 075°27'0 0.0
2017-Jan-10 22:33N 39°47' W 075°27'0 0.1
2017-Jan-10 21:33N 39°47' W 075°27'0 0.1
2017-Jan-10 20:33N 39°47' W 075°27'0 0.0
2017-Jan-10 19:33N 39°47' W 075°27'0 0.0
2017-Jan-10 18:33N 39°47' W 075°27'0 0.0
2017-Jan-10 17:33N 39°47' W 075°27'0 0.0
2017-Jan-10 16:33N 39°47' W 075°27'0 0.0
2017-Jan-10 15:33N 39°47' W 075°27'0 0.0
2017-Jan-10 14:33N 39°47' W 075°27'3 3.4
2017-Jan-10 13:33N 39°49' W 075°23'2 2.3
2017-Jan-10 12:33N 39°51' W 075°21'6 5.6
2017-Jan-10 11:33N 39°47' W 075°27'0 0.0
2017-Jan-10 10:33N 39°47' W 075°27'0 0.1
2017-Jan-10 09:34N 39°47' W 075°27'0 0.2
2017-Jan-10 08:34N 39°48' W 075°27'0 0.0
2017-Jan-10 07:33N 39°48' W 075°27'0 0.2
2017-Jan-10 06:34N 39°47' W 075°27'0 0.2
2017-Jan-10 05:34N 39°48' W 075°27'0 0.0
2017-Jan-10 04:33N 39°48' W 075°27'0 0.1
2017-Jan-10 03:33N 39°47' W 075°27'0 0.1
2017-Jan-10 02:33N 39°48' W 075°27'0 0.2
2017-Jan-10 01:33N 39°47' W 075°27'0 0.2
2017-Jan-10 00:34N 39°47' W 075°27'0 0.0
2017-Jan-09 23:34N 39°47' W 075°27'0 0.1
2017-Jan-09 22:33N 39°47' W 075°27'0 0.1
2017-Jan-09 21:34N 39°47' W 075°27'0 0.1
2017-Jan-09 20:33N 39°47' W 075°27'0 0.1
2017-Jan-09 19:34N 39°47' W 075°27'0 0.0
2017-Jan-09 18:33N 39°47' W 075°27'0 0.0
2017-Jan-09 17:33N 39°47' W 075°27'0 0.0
2017-Jan-09 16:33N 39°47' W 075°27'0 0.0
2017-Jan-09 15:34N 39°47' W 075°27'0 0.0
2017-Jan-09 14:33N 39°47' W 075°27'0 0.0
2017-Jan-09 13:34N 39°47' W 075°27'0 0.0
2017-Jan-09 12:34N 39°47' W 075°27'0 0.0
2017-Jan-09 11:34N 39°47' W 075°27'0 0.1
2017-Jan-09 10:33N 39°47' W 075°27'0 0.1
2017-Jan-09 09:33N 39°47' W 075°27'0 0.0
2017-Jan-09 08:33N 39°47' W 075°27'0 0.1
2017-Jan-09 07:33N 39°47' W 075°27'0 0.0
2017-Jan-09 06:33N 39°47' W 075°27'0 0.0
2017-Jan-09 05:33N 39°47' W 075°27'0 0.0
2017-Jan-09 04:33N 39°47' W 075°27'0 0.0
2017-Jan-09 03:33N 39°47' W 075°27'0 0.0
2017-Jan-09 02:33N 39°47' W 075°27'0 0.0
2017-Jan-09 01:33N 39°47' W 075°27'0 0.1
2017-Jan-09 00:33N 39°47' W 075°27'0 0.0
2017-Jan-08 23:33N 39°47' W 075°27'0 0.0
2017-Jan-08 22:33N 39°47' W 075°27'0 0.0
2017-Jan-08 21:33N 39°47' W 075°27'0 0.0
2017-Jan-08 20:33N 39°47' W 075°27'0 0.0
2017-Jan-08 19:33N 39°47' W 075°27'0 0.0
2017-Jan-08 18:33N 39°47' W 075°27'0 0.0
2017-Jan-08 17:33N 39°47' W 075°27'0 0.0
2017-Jan-08 16:33N 39°47' W 075°27'0 0.0
2017-Jan-08 15:33N 39°47' W 075°27'1 0.8
2017-Jan-08 14:33N 39°48' W 075°26'1 0.6
2017-Jan-08 13:33N 39°48' W 075°25'0 0.0
2017-Jan-08 12:33N 39°48' W 075°25'0 0.0
2017-Jan-08 11:33N 39°48' W 075°25'0 0.0
2017-Jan-08 10:33N 39°48' W 075°25'0 0.0
2017-Jan-08 09:33N 39°48' W 075°25'0 0.0
2017-Jan-08 08:33N 39°48' W 075°25'0 0.1
2017-Jan-08 07:33N 39°48' W 075°25'0 0.0
2017-Jan-08 06:33N 39°48' W 075°25'0 0.0
2017-Jan-08 05:33N 39°48' W 075°25'0 0.0
2017-Jan-08 04:33N 39°48' W 075°25'0 0.0
2017-Jan-08 03:33N 39°48' W 075°25'0 0.0
2017-Jan-08 02:33N 39°48' W 075°25'0 0.0
2017-Jan-08 01:33N 39°48' W 075°25'0 0.0
2017-Jan-08 00:33N 39°48' W 075°25'0 0.1
2017-Jan-07 23:33N 39°48' W 075°25'0 0.0
2017-Jan-07 22:33N 39°48' W 075°25'0 0.1
2017-Jan-07 21:33N 39°48' W 075°25'2 1.7
2017-Jan-07 20:33N 39°49' W 075°23'0 0.1
2017-Jan-07 19:33N 39°49' W 075°23'0 0.0
2017-Jan-07 18:33N 39°49' W 075°23'0 0.0
2017-Jan-07 17:33N 39°49' W 075°23'0 0.0
2017-Jan-07 16:33N 39°49' W 075°23'0 0.0
2017-Jan-07 15:33N 39°49' W 075°23'0 0.0
2017-Jan-07 14:33N 39°49' W 075°23'0 0.0
2017-Jan-07 13:33N 39°49' W 075°23'0 0.0
2017-Jan-07 12:33N 39°49' W 075°23'0 0.0
2017-Jan-07 11:33N 39°49' W 075°23'0 0.0
2017-Jan-07 10:33N 39°49' W 075°23'0 0.0
2017-Jan-07 09:33N 39°49' W 075°23'0 0.1
2017-Jan-07 08:33N 39°49' W 075°23'0 0.2
2017-Jan-07 07:33N 39°49' W 075°23'0 0.1
2017-Jan-07 06:33N 39°49' W 075°23'0 0.0
2017-Jan-07 05:33N 39°49' W 075°23'0 0.0
2017-Jan-07 04:33N 39°49' W 075°23'0 0.0
2017-Jan-07 03:33N 39°49' W 075°23'0 0.0
2017-Jan-07 02:33N 39°49' W 075°23'0 0.0
2017-Jan-07 01:33N 39°49' W 075°23'0 0.1
2017-Jan-07 00:33N 39°49' W 075°23'0 0.1
2017-Jan-06 23:33N 39°49' W 075°23'0 0.1
2017-Jan-06 22:33N 39°49' W 075°23'  

Dump ship's entire track history